WetterOnline ( https://www.wetteronline.de )

Wetter aktuell Coesfeld

Aktuelles Wetter: Ahaus (46m)

6-stündlich | Neueste Meldungen
Ortszeit Temperatur Wetter
Sa, 28.01. 19:00 -0.8° C wolkig
Sa, 28.01. 13:00 1.6° C wolkig
Sa, 28.01. 7:00 -0.2° C bedeckt
Sa, 28.01. 1:00 2.0° C bedeckt
Fr, 27.01. 19:00 3.5° C bedeckt
Fr, 27.01. 13:00 4.4° C bedeckt
Fr, 27.01. 7:00 2.8° C bewölkt
Fr, 27.01. 1:00 4.0° C bedeckt
Ortszeit Temperatur Wetter
Sa, 28.01. 23:00 0.2° C bedeckt
Sa, 28.01. 22:50 0.2° C bedeckt
Sa, 28.01. 22:40 0.3° C bedeckt
Sa, 28.01. 22:30 0.3° C bedeckt
Sa, 28.01. 22:20 0.3° C bedeckt
Sa, 28.01. 22:10 0.3° C bedeckt
Sa, 28.01. 22:00 0.3° C bedeckt
Sa, 28.01. 21:30 0.0° C bedeckt
Sa, 28.01. 21:00 0.1° C bedeckt
Sa, 28.01. 20:30 -0.1° C bedeckt
Sa, 28.01. 20:00 -0.6° C bedeckt
Ortszeit Relative Feuchte Sichtweite
Sa, 28.01. 19:00 84% 27 km
Sa, 28.01. 13:00 70% 35 km
Sa, 28.01. 7:00 73% 30 km
Sa, 28.01. 1:00 77% 30 km
Fr, 27.01. 19:00 81% 65 km
Fr, 27.01. 13:00 82% 55 km
Fr, 27.01. 7:00 92% 30 km
Fr, 27.01. 1:00 84% 30 km
Ortszeit Relative Feuchte Sichtweite
Sa, 28.01. 23:00 83% 17 km
Sa, 28.01. 22:50 83% -
Sa, 28.01. 22:40 82% -
Sa, 28.01. 22:30 80% 19 km
Sa, 28.01. 22:20 80% -
Sa, 28.01. 22:10 80% -
Sa, 28.01. 22:00 81% 19 km
Sa, 28.01. 21:30 83% 19 km
Sa, 28.01. 21:00 83% 17 km
Sa, 28.01. 20:30 83% 20 km
Sa, 28.01. 20:00 86% 20 km
Ortszeit Niederschlagsmenge Niederschlagsart
Sa, 28.01. 19:00 0.0 l/m2 in 12 Std. -
Sa, 28.01. 13:00 0.0 l/m2 in 6 Std. -
Sa, 28.01. 7:00 0.0 l/m2 in 12 Std. -
Sa, 28.01. 1:00 0.0 l/m2 in 6 Std. -
Fr, 27.01. 19:00 0.1 l/m2 in 12 Std. -
Fr, 27.01. 13:00 0.1 l/m2 in 6 Std. Sprühregen
Fr, 27.01. 7:00 0.1 l/m2 in 12 Std. Regen
Fr, 27.01. 1:00 0.0 l/m2 in 6 Std. -
Ortszeit Niederschlagsmenge Niederschlagsart
Sa, 28.01. 23:00 0.0 l/m2 in 1 Std. -
Sa, 28.01. 22:50 keine Meldung -
Sa, 28.01. 22:40 keine Meldung -
Sa, 28.01. 22:30 0.0 l/m2 in 30 Min -
Sa, 28.01. 22:20 keine Meldung -
Sa, 28.01. 22:10 keine Meldung -
Sa, 28.01. 22:00 0.0 l/m2 in 1 Std. -
Sa, 28.01. 21:30 0.0 l/m2 in 30 Min -
Sa, 28.01. 21:00 0.0 l/m2 in 1 Std. -
Sa, 28.01. 20:30 0.0 l/m2 in 30 Min -
Sa, 28.01. 20:00 0.0 l/m2 in 1 Std. -
Ortszeit Stärke Spitze Richtung
km/h Bft. km/h Grad Sektor
Sa, 28.01. 19:00 7 2 18 190° S
Sa, 28.01. 13:00 7 2 22 160° S
Sa, 28.01. 7:00 4 1 18 360° N
Sa, 28.01. 1:00 7 2 22 70° O
Fr, 27.01. 19:00 11 2 32 20° N
Fr, 27.01. 13:00 15 3 30 30° NO
Fr, 27.01. 7:00 9 2 30 10° N
Fr, 27.01. 1:00 14 3 29 20° N
Ortszeit Stärke Spitze Richtung
km/h Bft. km/h Grad Sektor
Sa, 28.01. 23:00 9 2 15 210° SW
Sa, 28.01. 22:50 9 2 - 210° SW
Sa, 28.01. 22:40 7 2 - 210° SW
Sa, 28.01. 22:30 7 2 15 220° SW
Sa, 28.01. 22:20 7 2 - 220° SW
Sa, 28.01. 22:10 7 2 - 220° SW
Sa, 28.01. 22:00 11 2 14 210° SW
Sa, 28.01. 21:30 7 2 11 200° S
Sa, 28.01. 21:00 7 2 14 200° S
Sa, 28.01. 20:30 7 2 14 220° SW
Sa, 28.01. 20:00 6 1 9 220° SW
Ortszeit Untergrenze Bedeckung Gattung
total tief tief mittel hoch
Sa, 28.01. 19:00 960 m 5/8 4/8 - - -
Sa, 28.01. 13:00 810 m 6/8 4/8 - - -
Sa, 28.01. 7:00 630 m 8/8 8/8 - - -
Sa, 28.01. 1:00 630 m 8/8 8/8 - - -
Fr, 27.01. 19:00 630 m 8/8 8/8 - - -
Fr, 27.01. 13:00 480 m 8/8 8/8 - - -
Fr, 27.01. 7:00 420 m 7/8 7/8 - - -
Fr, 27.01. 1:00 480 m 8/8 8/8 - - -
Ortszeit Bedeckungsgrad in Achtel und Wolkenuntergrenze
Sa, 28.01. 23:00 8(960m)
Sa, 28.01. 22:50 8(960m)
Sa, 28.01. 22:40 8
Sa, 28.01. 22:30 8(930m)
Sa, 28.01. 22:20 8(930m)
Sa, 28.01. 22:10 8
Sa, 28.01. 22:00 8(990m)
Sa, 28.01. 21:30 8(960m)
Sa, 28.01. 21:00 8(930m)
Sa, 28.01. 20:30 8(930m)
Sa, 28.01. 20:00 8(930m)
Ortszeit Luftdruck NN (hPa) Tendenz (hPa in 3 Std.)
Sa, 28.01. 19:00 1031 + 0,5
Sa, 28.01. 13:00 1030 - 0,8
Sa, 28.01. 7:00 1030 + 0,2
Sa, 28.01. 1:00 1029 - 0,2
Fr, 27.01. 19:00 1029 + 1,2
Fr, 27.01. 13:00 1027 + 0,2
Fr, 27.01. 7:00 1026 + 0,7
Fr, 27.01. 1:00 1025 + 0,5
Ortszeit Luftdruck NN (hPa) Tendenz (hPa in 3 Std.)
Sa, 28.01. 23:00 1031 - 0,6
Sa, 28.01. 22:50 1031 keine Meldung
Sa, 28.01. 22:40 1031 keine Meldung
Sa, 28.01. 22:30 1031 - 0,3
Sa, 28.01. 22:20 1031 keine Meldung
Sa, 28.01. 22:10 1031 keine Meldung
Sa, 28.01. 22:00 1031 0,0
Sa, 28.01. 21:30 1031 + 0,4
Sa, 28.01. 21:00 1031 + 0,7
Sa, 28.01. 20:30 1031 + 0,7
Sa, 28.01. 20:00 1031 + 0,7
Ortszeit Schneehöhe (cm)
Sa, 28.01. 19:00 0
Sa, 28.01. 13:00 0
Sa, 28.01. 7:00 0
Sa, 28.01. 1:00 0
Fr, 27.01. 19:00 0
Fr, 27.01. 13:00 0
Fr, 27.01. 7:00 0
Fr, 27.01. 1:00 0
Ortszeit Schneehöhe (cm)
Sa, 28.01. 23:00 0
Sa, 28.01. 22:50 0
Sa, 28.01. 22:40 0
Sa, 28.01. 22:30 0
Sa, 28.01. 22:20 0
Sa, 28.01. 22:10 0
Sa, 28.01. 22:00 0
Sa, 28.01. 21:30 0
Sa, 28.01. 21:00 0
Sa, 28.01. 20:30 0
Sa, 28.01. 20:00 0
Link zu dieser Seite / Seite empfehlen

Das Wetter in ...